Time;durP1;ratioP1;P1;durP2;ratioP2;P2;SDS_P1;SDS_P2;PMS_P1;PMS_P2;Temp;Humidity;BMP_temperature;BMP_pressure;BME280_temperature;BME280_humidity;BME280_pressure;Samples;Min_cycle;Max_cycle;Signal;HPM_P1;HPM_P2
2023/04/12 00:01:54;;;;;;;;;;;;;;;6.03;100.00;99797.72;5567361;32;34139;-66
2023/04/12 00:04:57;;;;;;;;;;;;;;;6.00;100.00;99792.75;5567226;32;34607;-66
2023/04/12 00:08:02;;;;;;;;;;;;;;;6.02;100.00;99795.25;5567091;32;34239;-67
2023/04/12 00:11:04;;;;;;;;;;;;;;;5.96;100.00;99791.41;5553134;32;34142;-66
2023/04/12 00:14:07;;;;;;;;;;;;;;;5.90;100.00;99786.78;5566815;32;34813;-65
2023/04/12 00:17:10;;;;;;;;;;;;;;;5.86;100.00;99792.44;5566691;32;34999;-66
2023/04/12 00:20:15;;;;;;;;;;;;;;;5.84;100.00;99795.25;5553156;32;34152;-65
2023/04/12 00:23:17;;;;;;;;;;;;;;;5.80;100.00;99801.78;5566680;32;34715;-66
2023/04/12 00:26:24;;;;;;;;;;;;;;;5.78;100.00;99797.63;5566840;31;34168;-67
2023/04/12 00:29:27;;;;;;;;;;;;;;;5.81;100.00;99795.53;5566590;32;34122;-66
2023/04/12 00:32:29;;;;;;;;;;;;;;;5.75;100.00;99801.41;5552727;32;34716;-67
2023/04/12 00:35:32;;;;;;;;;;;;;;;5.68;100.00;99803.81;5566517;32;34604;-66
2023/04/12 00:38:35;;;;;;;;;;;;;;;5.70;100.00;99803.66;5566378;32;34552;-68
2023/04/12 00:41:38;;;;;;;;;;;;;;;5.69;100.00;99804.63;5566243;31;34183;-67
2023/04/12 00:44:40;;;;;;;;;;;;;;;5.69;100.00;99810.72;5566062;32;34186;-65
2023/04/12 00:47:43;;;;;;;;;;;;;;;5.64;100.00;99809.53;5566165;32;35040;-68
2023/04/12 00:50:46;;;;;;;;;;;;;;;5.61;100.00;99797.50;5566263;32;34096;-66
2023/04/12 00:53:49;;;;;;;;;;;;;;;5.57;100.00;99797.94;5568125;32;34041;-68
2023/04/12 00:56:51;;;;;;;;;;;;;;;5.55;100.00;99787.56;5569035;32;33981;-66
2023/04/12 00:59:54;;;;;;;;;;;;;;;5.55;100.00;99786.75;5568761;32;34311;-66
2023/04/12 01:02:58;;;;;;;;;;;;;;;5.58;100.00;99791.69;5568748;32;34224;-68
2023/04/12 01:06:04;;;;;;;;;;;;;;;5.52;100.00;99782.59;5567835;32;34509;-67
2023/04/12 01:09:19;;;;;;;;;;;;;;;5.50;100.00;99775.84;5569101;32;34596;-66
2023/04/12 01:12:37;;;;;;;;;;;;;;;5.52;100.00;99773.88;5568822;32;34329;-69
2023/04/12 01:15:44;;;;;;;;;;;;;;;5.49;100.00;99768.91;5568719;32;34738;-66
2023/04/12 01:18:52;;;;;;;;;;;;;;;5.46;100.00;99771.87;5568551;32;34363;-68
2023/04/12 01:22:10;;;;;;;;;;;;;;;5.41;100.00;99772.31;5568663;32;34844;-67
2023/04/12 01:25:22;;;;;;;;;;;;;;;5.42;100.00;99775.78;5554829;32;34211;-66
2023/04/12 01:28:28;;;;;;;;;;;;;;;5.40;100.00;99769.81;5568869;32;34991;-67
2023/04/12 01:31:32;;;;;;;;;;;;;;;5.34;100.00;99776.50;5568629;32;34253;-65
2023/04/12 01:34:35;;;;;;;;;;;;;;;5.36;100.00;99784.25;5568921;32;33981;-67
2023/04/12 01:37:38;;;;;;;;;;;;;;;5.31;100.00;99755.78;5568447;32;34305;-66
2023/04/12 01:40:41;;;;;;;;;;;;;;;5.30;100.00;99776.94;5568537;32;34212;-67
2023/04/12 01:43:45;;;;;;;;;;;;;;;5.24;100.00;99759.97;5554795;32;34334;-65
2023/04/12 01:46:47;;;;;;;;;;;;;;;5.21;100.00;99773.41;5568368;32;34832;-66
2023/04/12 01:50:13;;;;;;;;;;;;;;;5.15;100.00;99763.47;5568206;32;34458;-66
2023/04/12 01:53:20;;;;;;;;;;;;;;;5.14;100.00;99760.03;5574391;31;34544;-65
2023/04/12 01:56:23;;;;;;;;;;;;;;;5.19;100.00;99751.69;5587931;31;34289;-65
2023/04/12 01:59:27;;;;;;;;;;;;;;;5.20;100.00;99761.25;5571292;31;32561;-68
2023/04/12 02:02:30;;;;;;;;;;;;;;;5.19;100.00;99749.87;5554567;32;34625;-65
2023/04/12 02:05:34;;;;;;;;;;;;;;;5.19;100.00;99749.87;5567763;32;34181;-65
2023/04/12 02:08:37;;;;;;;;;;;;;;;5.15;100.00;99751.16;5568289;32;34695;-68
2023/04/12 02:11:39;;;;;;;;;;;;;;;5.21;100.00;99753.22;5568224;32;33952;-66
2023/04/12 02:14:44;;;;;;;;;;;;;;;5.28;100.00;99752.62;5568586;32;34234;-68
2023/04/12 02:17:46;;;;;;;;;;;;;;;5.31;100.00;99763.66;5568248;32;34263;-66
2023/04/12 02:20:49;;;;;;;;;;;;;;;5.39;100.00;99757.63;5567949;32;34375;-65
2023/04/12 02:23:52;;;;;;;;;;;;;;;5.38;100.00;99777.03;5568085;32;34786;-65
2023/04/12 02:26:55;;;;;;;;;;;;;;;5.40;100.00;99773.28;5568012;32;34779;-67
2023/04/12 02:29:58;;;;;;;;;;;;;;;5.33;100.00;99776.66;5568116;32;33988;-65
2023/04/12 02:33:04;;;;;;;;;;;;;;;5.37;100.00;99789.38;5568051;32;34900;-67
2023/04/12 02:36:09;;;;;;;;;;;;;;;5.24;100.00;99784.47;5568233;32;34182;-65
2023/04/12 02:39:11;;;;;;;;;;;;;;;5.15;100.00;99785.34;5568249;32;34104;-66
2023/04/12 02:42:14;;;;;;;;;;;;;;;5.13;100.00;99789.91;5567990;32;33863;-66
2023/04/12 02:45:17;;;;;;;;;;;;;;;5.09;100.00;99803.50;5568002;32;34181;-67
2023/04/12 02:48:20;;;;;;;;;;;;;;;5.03;100.00;99804.94;5585921;31;34198;-67
2023/04/12 02:51:23;;;;;;;;;;;;;;;4.97;100.00;99792.38;5587318;31;34322;-66
2023/04/12 02:54:26;;;;;;;;;;;;;;;4.90;100.00;99811.50;5587350;31;34079;-65
2023/04/12 02:57:29;;;;;;;;;;;;;;;4.85;100.00;99797.94;5587446;31;34303;-67
2023/04/12 03:00:31;;;;;;;;;;;;;;;4.83;100.00;99808.63;5587363;31;34047;-66
2023/04/12 03:03:34;;;;;;;;;;;;;;;4.78;100.00;99821.38;5587434;31;34639;-66
2023/04/12 03:06:51;;;;;;;;;;;;;;;4.67;100.00;99811.88;5587212;31;34783;-65
2023/04/12 03:09:54;;;;;;;;;;;;;;;4.63;100.00;99807.88;5587695;31;34305;-66
2023/04/12 03:12:56;;;;;;;;;;;;;;;4.69;100.00;99802.06;5587202;31;34788;-65
2023/04/12 03:16:18;;;;;;;;;;;;;;;4.65;100.00;99816.44;5587178;31;34699;-64
2023/04/12 03:19:22;;;;;;;;;;;;;;;4.59;100.00;99813.56;5586986;31;35064;-65
2023/04/12 03:22:25;;;;;;;;;;;;;;;4.52;100.00;99818.56;5573334;31;34255;-65
2023/04/12 03:25:30;;;;;;;;;;;;;;;4.49;100.00;99813.59;5587400;31;34009;-66
2023/04/12 03:28:34;;;;;;;;;;;;;;;4.52;100.00;99813.28;5587407;31;34373;-65
2023/04/12 03:31:37;;;;;;;;;;;;;;;4.50;100.00;99801.28;5556282;32;33919;-66
2023/04/12 03:34:40;;;;;;;;;;;;;;;4.46;100.00;99798.09;5567774;32;34196;-65
2023/04/12 03:37:43;;;;;;;;;;;;;;;4.50;100.00;99785.53;5567424;32;34648;-67
2023/04/12 03:40:46;;;;;;;;;;;;;;;4.48;100.00;99790.09;5567482;32;34870;-65
2023/04/12 03:43:49;;;;;;;;;;;;;;;4.44;100.00;99779.06;5567227;32;34862;-67
2023/04/12 03:46:52;;;;;;;;;;;;;;;4.51;100.00;99774.84;5567266;32;34198;-68
2023/04/12 03:50:00;;;;;;;;;;;;;;;4.50;100.00;99772.41;5567407;32;34133;-68
2023/04/12 03:53:07;;;;;;;;;;;;;;;4.48;100.00;99772.53;5554061;32;34880;-68
2023/04/12 03:56:11;;;;;;;;;;;;;;;4.48;100.00;99774.31;5553427;32;33980;-65
2023/04/12 03:59:15;;;;;;;;;;;;;;;4.45;100.00;99758.88;5567128;32;35089;-67
2023/04/12 04:02:19;;;;;;;;;;;;;;;4.40;100.00;99763.72;5567361;32;34398;-67
2023/04/12 04:05:22;;;;;;;;;;;;;;;4.37;100.00;99755.16;5553162;32;34207;-66
2023/04/12 04:08:24;;;;;;;;;;;;;;;4.33;100.00;99758.22;5566893;32;35591;-67
2023/04/12 04:11:27;;;;;;;;;;;;;;;4.34;100.00;99762.50;5566979;32;33969;-67
2023/04/12 04:14:33;;;;;;;;;;;;;;;4.37;100.00;99767.44;5567250;32;34771;-67
2023/04/12 04:17:36;;;;;;;;;;;;;;;4.44;100.00;99765.09;5566912;32;34794;-66
2023/04/12 04:20:39;;;;;;;;;;;;;;;4.49;100.00;99761.06;5566408;31;33916;-66
2023/04/12 04:23:46;;;;;;;;;;;;;;;4.48;100.00;99759.41;5575187;31;34872;-66
2023/04/12 04:26:53;;;;;;;;;;;;;;;4.61;100.00;99762.53;5566731;32;34479;-67
2023/04/12 04:29:58;;;;;;;;;;;;;;;4.69;100.00;99762.66;5569300;32;34587;-67
2023/04/12 04:33:01;;;;;;;;;;;;;;;4.67;100.00;99767.22;5569165;32;34066;-66
2023/04/12 04:36:08;;;;;;;;;;;;;;;4.81;100.00;99765.88;5568917;32;34218;-67
2023/04/12 04:39:11;;;;;;;;;;;;;;;4.81;100.00;99758.00;5569018;32;34975;-65
2023/04/12 04:42:14;;;;;;;;;;;;;;;4.91;100.00;99760.59;5558121;31;34271;-68
2023/04/12 04:45:20;;;;;;;;;;;;;;;4.94;100.00;99765.56;5583912;31;34178;-67
2023/04/12 04:48:23;;;;;;;;;;;;;;;5.06;100.00;99756.50;5588621;31;33896;-66
2023/04/12 04:51:26;;;;;;;;;;;;;;;5.17;100.00;99762.38;5575081;31;34423;-66
2023/04/12 04:54:32;;;;;;;;;;;;;;;5.23;100.00;99761.75;5579934;31;34364;-66
2023/04/12 04:57:35;;;;;;;;;;;;;;;5.32;100.00;99764.50;5571054;31;34412;-66
2023/04/12 05:00:38;;;;;;;;;;;;;;;5.38;100.00;99767.34;5570308;31;34422;-66
2023/04/12 05:03:43;;;;;;;;;;;;;;;5.48;100.00;99770.72;5568791;31;34255;-66
2023/04/12 05:06:47;;;;;;;;;;;;;;;5.61;100.00;99775.62;5573415;31;34260;-66
2023/04/12 05:09:51;;;;;;;;;;;;;;;5.65;100.00;99780.44;5583938;31;33998;-65
2023/04/12 05:12:54;;;;;;;;;;;;;;;5.76;100.00;99773.28;5588125;31;34070;-67
2023/04/12 05:15:57;;;;;;;;;;;;;;;5.84;100.00;99773.34;5575978;31;35343;-68
2023/04/12 05:19:00;;;;;;;;;;;;;;;5.95;100.00;99771.34;5568222;32;34732;-66
2023/04/12 05:22:03;;;;;;;;;;;;;;;6.01;100.00;99770.72;5568364;32;34359;-67
2023/04/12 05:25:07;;;;;;;;;;;;;;;6.07;100.00;99764.00;5586380;31;34235;-66
2023/04/12 05:28:13;;;;;;;;;;;;;;;6.18;100.00;99766.41;5577774;31;33980;-66
2023/04/12 05:31:16;;;;;;;;;;;;;;;6.16;100.00;99765.72;5568343;32;34094;-67
2023/04/12 05:34:19;;;;;;;;;;;;;;;6.21;100.00;99754.72;5567986;31;34585;-67
2023/04/12 05:37:24;;;;;;;;;;;;;;;6.19;100.00;99754.06;5570196;31;34811;-66
2023/04/12 05:40:27;;;;;;;;;;;;;;;6.30;100.00;99748.50;5573893;31;34812;-67
2023/04/12 05:43:29;;;;;;;;;;;;;;;6.33;100.00;99746.41;5567815;31;34859;-67
2023/04/12 05:46:32;;;;;;;;;;;;;;;6.43;100.00;99738.41;5566696;31;34051;-67
2023/04/12 05:49:35;;;;;;;;;;;;;;;6.46;100.00;99733.63;5568836;31;33765;-67
2023/04/12 05:52:38;;;;;;;;;;;;;;;6.53;100.00;99737.28;5579787;31;34213;-67
2023/04/12 05:55:41;;;;;;;;;;;;;;;6.50;100.00;99749.94;5580435;31;34280;-66
2023/04/12 05:58:43;;;;;;;;;;;;;;;6.54;100.00;99752.09;5569017;31;33508;-65
2023/04/12 06:01:46;;;;;;;;;;;;;;;6.49;100.00;99764.91;5568086;31;34790;-67
2023/04/12 06:04:51;;;;;;;;;;;;;;;6.46;100.00;99764.41;5573200;31;34774;-65
2023/04/12 06:07:54;;;;;;;;;;;;;;;6.52;100.00;99772.53;5569092;31;34260;-67
2023/04/12 06:10:56;;;;;;;;;;;;;;;6.44;100.00;99772.47;5567521;32;34752;-65
2023/04/12 06:14:00;;;;;;;;;;;;;;;6.36;100.00;99782.13;5567930;31;34182;-67
2023/04/12 06:17:03;;;;;;;;;;;;;;;6.46;100.00;99788.97;5583313;31;34144;-66
2023/04/12 06:20:08;;;;;;;;;;;;;;;6.30;100.00;99785.38;5567084;31;34246;-67
2023/04/12 06:23:12;;;;;;;;;;;;;;;6.37;100.00;99787.25;5580148;31;35164;-65
2023/04/12 06:26:15;;;;;;;;;;;;;;;6.43;100.00;99785.81;5584052;31;34930;-66
2023/04/12 06:29:20;;;;;;;;;;;;;;;6.68;100.00;99789.41;5584248;31;34199;-67
2023/04/12 06:32:22;;;;;;;;;;;;;;;6.90;100.00;99791.50;5554512;32;34134;-66
2023/04/12 06:35:26;;;;;;;;;;;;;;;7.11;100.00;99789.28;5568820;31;34786;-66
2023/04/12 06:38:28;;;;;;;;;;;;;;;7.16;100.00;99791.44;5569858;31;34406;-67
2023/04/12 06:41:31;;;;;;;;;;;;;;;7.19;100.00;99785.81;5563612;31;34539;-67
2023/04/12 06:44:33;;;;;;;;;;;;;;;7.56;100.00;99796.78;5564676;31;34069;-67
2023/04/12 06:47:36;;;;;;;;;;;;;;;8.46;100.00;99793.19;5558854;31;34109;-67
2023/04/12 06:50:38;;;;;;;;;;;;;;;8.78;100.00;99794.91;5578456;31;34577;-68
2023/04/12 06:53:41;;;;;;;;;;;;;;;8.49;100.00;99784.91;5571071;31;33785;-67
2023/04/12 06:56:43;;;;;;;;;;;;;;;9.27;100.00;99795.53;5569630;31;34481;-67
2023/04/12 06:59:46;;;;;;;;;;;;;;;9.48;98.18;99795.75;5568749;31;34814;-67
2023/04/12 07:02:48;;;;;;;;;;;;;;;9.63;97.36;99792.34;5579742;31;34803;-68
2023/04/12 07:05:54;;;;;;;;;;;;;;;10.12;90.13;99796.25;5556156;31;34571;-69
2023/04/12 07:08:56;;;;;;;;;;;;;;;10.00;93.29;99789.72;5567313;31;34773;-68
2023/04/12 07:12:01;;;;;;;;;;;;;;;10.52;85.93;99796.91;5570053;31;34591;-68
2023/04/12 07:15:03;;;;;;;;;;;;;;;10.72;84.82;99800.66;5567381;32;34254;-69
2023/04/12 07:18:06;;;;;;;;;;;;;;;10.51;83.60;99800.53;5569005;31;33996;-68
2023/04/12 07:21:08;;;;;;;;;;;;;;;10.79;82.37;99796.28;5567157;31;33921;-68
2023/04/12 07:24:11;;;;;;;;;;;;;;;10.60;84.04;99797.63;5571887;31;33991;-67
2023/04/12 07:27:14;;;;;;;;;;;;;;;11.14;76.58;99786.72;5573027;31;34941;-67
2023/04/12 07:30:17;;;;;;;;;;;;;;;10.66;78.55;99777.50;5559147;32;34447;-67
2023/04/12 07:33:19;;;;;;;;;;;;;;;11.68;72.70;99787.94;5570657;31;34943;-67
2023/04/12 07:36:22;;;;;;;;;;;;;;;11.33;75.58;99788.78;5554265;31;34236;-67
2023/04/12 07:39:25;;;;;;;;;;;;;;;11.38;74.97;99798.84;5567166;31;34229;-67
2023/04/12 07:42:28;;;;;;;;;;;;;;;11.80;73.80;99795.44;5567207;32;34276;-68
2023/04/12 07:45:31;;;;;;;;;;;;;;;11.80;73.50;99790.97;5567639;31;33960;-68
2023/04/12 07:48:33;;;;;;;;;;;;;;;12.40;68.14;99790.44;5569060;31;34229;-67
2023/04/12 07:51:36;;;;;;;;;;;;;;;11.47;73.17;99795.91;5556527;31;34233;-67
2023/04/12 07:54:39;;;;;;;;;;;;;;;11.69;71.79;99789.59;5570615;31;32904;-68
2023/04/12 07:57:41;;;;;;;;;;;;;;;11.90;71.00;99791.47;5575498;31;34494;-67
2023/04/12 08:00:44;;;;;;;;;;;;;;;12.35;67.66;99781.38;5570394;31;34205;-68
2023/04/12 08:03:47;;;;;;;;;;;;;;;12.67;67.17;99791.44;5566632;31;34213;-68
2023/04/12 08:06:50;;;;;;;;;;;;;;;13.28;62.64;99795.06;5568995;31;34439;-68
2023/04/12 08:09:53;;;;;;;;;;;;;;;13.99;60.47;99797.28;5573261;31;33843;-68
2023/04/12 08:12:56;;;;;;;;;;;;;;;14.43;58.41;99794.81;5583779;31;34301;-68
2023/04/12 08:15:58;;;;;;;;;;;;;;;13.60;60.49;99788.19;5586197;31;34408;-68
2023/04/12 08:19:01;;;;;;;;;;;;;;;14.27;57.43;99798.72;5585025;31;34958;-68
2023/04/12 08:22:04;;;;;;;;;;;;;;;14.07;57.29;99795.22;5558515;31;34776;-67
2023/04/12 08:25:07;;;;;;;;;;;;;;;13.08;58.03;99792.28;5574071;31;34123;-68
2023/04/12 08:28:10;;;;;;;;;;;;;;;14.30;55.54;99792.97;5567392;31;34559;-67
2023/04/12 08:31:12;;;;;;;;;;;;;;;14.37;54.13;99798.34;5580151;31;34202;-68
2023/04/12 08:34:15;;;;;;;;;;;;;;;15.26;51.51;99795.03;5558379;31;34839;-68
2023/04/12 08:37:17;;;;;;;;;;;;;;;16.09;49.23;99799.31;5576014;31;34403;-68
2023/04/12 08:40:21;;;;;;;;;;;;;;;14.99;51.45;99795.13;5562639;31;34144;-69
2023/04/12 08:43:27;;;;;;;;;;;;;;;15.87;50.04;99801.53;5568591;31;34103;-69
2023/04/12 08:46:29;;;;;;;;;;;;;;;16.78;45.53;99801.81;5555187;31;34069;-68
2023/04/12 08:49:33;;;;;;;;;;;;;;;17.38;43.42;99799.22;5569704;31;33947;-69
2023/04/12 08:52:36;;;;;;;;;;;;;;;17.22;44.28;99794.50;5567720;31;34253;-69
2023/04/12 08:55:43;;;;;;;;;;;;;;;17.05;42.77;99783.56;5557856;31;33996;-67
2023/04/12 08:58:47;;;;;;;;;;;;;;;17.30;42.70;99797.69;5568669;31;34133;-68
2023/04/12 09:01:50;;;;;;;;;;;;;;;17.77;41.73;99788.00;5568029;31;35314;-69
2023/04/12 09:04:54;;;;;;;;;;;;;;;19.25;39.04;99801.16;5573447;31;34061;-69
2023/04/12 09:07:57;;;;;;;;;;;;;;;19.05;38.35;99788.09;5562650;31;34146;-69
2023/04/12 09:10:59;;;;;;;;;;;;;;;18.01;40.64;99785.41;5584850;31;34094;-70
2023/04/12 09:14:02;;;;;;;;;;;;;;;16.85;41.62;99783.78;5582481;31;34122;-68
2023/04/12 09:17:24;;;;;;;;;;;;;;;14.93;46.72;99774.59;5568231;31;34019;-69
2023/04/12 09:20:28;;;;;;;;;;;;;;;13.38;50.76;99771.53;5574386;31;34199;-69
2023/04/12 09:23:31;;;;;;;;;;;;;;;12.42;54.06;99768.97;5575012;31;34745;-69
2023/04/12 09:26:33;;;;;;;;;;;;;;;12.27;56.08;99763.75;5577858;31;34728;-67
2023/04/12 09:29:36;;;;;;;;;;;;;;;12.05;56.15;99760.28;5554308;32;34937;-68
2023/04/12 09:32:38;;;;;;;;;;;;;;;11.97;56.26;99760.44;5568542;32;33880;-69
2023/04/12 09:35:45;;;;;;;;;;;;;;;12.02;57.95;99751.88;5569673;32;34589;-67
2023/04/12 09:38:59;;;;;;;;;;;;;;;12.20;54.69;99747.72;5577929;31;34210;-68
2023/04/12 09:42:03;;;;;;;;;;;;;;;13.02;54.78;99745.12;5588132;31;34058;-68
2023/04/12 09:45:19;;;;;;;;;;;;;;;12.87;52.90;99738.31;5573737;31;33568;-67
2023/04/12 09:48:26;;;;;;;;;;;;;;;12.36;55.58;99733.31;5581397;31;34064;-68
2023/04/12 09:51:31;;;;;;;;;;;;;;;12.32;57.48;99732.06;5568343;32;34229;-68
2023/04/12 09:54:36;;;;;;;;;;;;;;;12.45;55.93;99734.81;5571525;31;34541;-67
2023/04/12 09:57:43;;;;;;;;;;;;;;;12.27;55.62;99729.19;5568444;31;34805;-67
2023/04/12 10:00:46;;;;;;;;;;;;;;;11.82;56.96;99724.31;5568446;31;35004;-70
2023/04/12 10:03:50;;;;;;;;;;;;;;;12.13;56.69;99712.31;5570586;31;34339;-69
2023/04/12 10:06:53;;;;;;;;;;;;;;;12.35;54.55;99729.00;5587462;31;34285;-68
2023/04/12 10:09:57;;;;;;;;;;;;;;;12.26;53.38;99714.22;5569465;31;34654;-68
2023/04/12 10:13:00;;;;;;;;;;;;;;;12.28;54.28;99722.03;5574980;31;35100;-69
2023/04/12 10:16:04;;;;;;;;;;;;;;;12.26;57.03;99718.72;5575407;31;34055;-69
2023/04/12 10:19:09;;;;;;;;;;;;;;;12.36;56.60;99708.56;5568098;31;34855;-68
2023/04/12 10:22:11;;;;;;;;;;;;;;;12.44;57.87;99706.56;5567727;32;34848;-68
2023/04/12 10:25:24;;;;;;;;;;;;;;;12.55;54.92;99719.31;5553588;32;34052;-68
2023/04/12 10:28:27;;;;;;;;;;;;;;;12.50;54.04;99715.59;5567813;32;34355;-68
2023/04/12 10:31:31;;;;;;;;;;;;;;;12.32;54.47;99709.97;5553455;32;33719;-68
2023/04/12 10:34:34;;;;;;;;;;;;;;;12.58;54.21;99713.63;5567550;32;34080;-68
2023/04/12 10:37:55;;;;;;;;;;;;;;;12.78;54.42;99707.56;5567388;32;33881;-67
2023/04/12 10:41:17;;;;;;;;;;;;;;;13.00;53.42;99712.56;5567364;32;34115;-68
2023/04/12 10:44:23;;;;;;;;;;;;;;;13.73;50.73;99726.91;5566852;31;34405;-69
2023/04/12 10:47:45;;;;;;;;;;;;;;;15.61;43.27;99702.75;5568937;31;34219;-68
2023/04/12 10:51:07;;;;;;;;;;;;;;;18.07;37.49;99714.66;5567840;31;34783;-67
2023/04/12 10:54:10;;;;;;;;;;;;;;;18.38;37.75;99700.91;5567422;32;33560;-67
2023/04/12 10:57:39;;;;;;;;;;;;;;;20.92;33.65;99700.75;5567181;32;34128;-69
2023/04/12 11:00:58;;;;;;;;;;;;;;;20.47;33.10;99701.81;5567387;31;34124;-71
2023/04/12 11:04:04;;;;;;;;;;;;;;;20.60;31.54;99700.62;5561675;31;34306;-71
2023/04/12 11:07:10;;;;;;;;;;;;;;;23.01;29.09;99710.31;5567563;31;34792;-70
2023/04/12 11:10:14;;;;;;;;;;;;;;;22.73;29.25;99692.62;5555755;31;34142;-68
2023/04/12 11:13:18;;;;;;;;;;;;;;;20.64;31.75;99690.97;5584442;31;34120;-68
2023/04/12 11:16:20;;;;;;;;;;;;;;;20.70;31.24;99701.59;5586434;31;34245;-68
2023/04/12 11:19:23;;;;;;;;;;;;;;;22.89;29.40;99695.16;5587162;31;34581;-68
2023/04/12 11:22:30;;;;;;;;;;;;;;;20.27;31.64;99679.94;5586654;31;34238;-71
2023/04/12 11:25:33;;;;;;;;;;;;;;;20.19;32.91;99683.84;5581511;31;34304;-69
2023/04/12 11:28:35;;;;;;;;;;;;;;;22.05;30.16;99688.97;5566874;32;33944;-69
2023/04/12 11:31:38;;;;;;;;;;;;;;;21.60;28.53;99682.09;5555445;32;34117;-68
2023/04/12 11:34:41;;;;;;;;;;;;;;;21.89;28.40;99681.78;5566985;32;34341;-68
2023/04/12 11:37:44;;;;;;;;;;;;;;;22.51;27.91;99679.25;5567392;32;34250;-69
2023/04/12 11:40:47;;;;;;;;;;;;;;;22.22;27.97;99665.28;5566201;32;34457;-69
2023/04/12 11:43:49;;;;;;;;;;;;;;;23.46;26.87;99679.88;5567149;32;33922;-70
2023/04/12 11:46:53;;;;;;;;;;;;;;;24.01;25.22;99666.31;5567426;32;34328;-69
2023/04/12 11:49:57;;;;;;;;;;;;;;;23.40;25.13;99666.31;5553410;32;34456;-70
2023/04/12 11:53:11;;;;;;;;;;;;;;;23.65;25.93;99656.59;5567210;32;34272;-69
2023/04/12 11:56:14;;;;;;;;;;;;;;;22.88;27.00;99654.81;5567282;32;34818;-69
2023/04/12 11:59:16;;;;;;;;;;;;;;;23.87;26.04;99645.50;5566949;32;34402;-68
2023/04/12 12:02:19;;;;;;;;;;;;;;;23.45;24.93;99648.47;5566857;32;34259;-70
2023/04/12 12:05:26;;;;;;;;;;;;;;;24.16;24.44;99641.94;5553639;32;34884;-71
2023/04/12 12:08:29;;;;;;;;;;;;;;;24.51;24.60;99632.91;5553084;32;34026;-71
2023/04/12 12:11:32;;;;;;;;;;;;;;;23.89;25.31;99629.78;5552977;32;34156;-69
2023/04/12 12:14:35;;;;;;;;;;;;;;;24.76;24.13;99623.03;5566766;32;34278;-71
2023/04/12 12:17:38;;;;;;;;;;;;;;;25.71;23.07;99627.03;5584345;31;34517;-72
2023/04/12 12:20:50;;;;;;;;;;;;;;;26.19;23.22;99617.03;5572236;31;33951;-71
2023/04/12 12:23:53;;;;;;;;;;;;;;;26.63;21.89;99624.16;5585990;31;34711;-69
2023/04/12 12:26:57;;;;;;;;;;;;;;;27.03;21.87;99629.09;5570637;31;33949;-69
2023/04/12 12:30:01;;;;;;;;;;;;;;;25.61;23.70;99623.62;5566503;32;34219;-69
2023/04/12 12:33:05;;;;;;;;;;;;;;;26.83;21.86;99613.03;5566224;32;34397;-69
2023/04/12 12:36:08;;;;;;;;;;;;;;;26.15;22.29;99607.84;5566056;32;34405;-69
2023/04/12 12:39:11;;;;;;;;;;;;;;;26.95;21.71;99602.56;5566363;32;34101;-69
2023/04/12 12:42:14;;;;;;;;;;;;;;;27.87;20.96;99601.91;5566161;32;34591;-70
2023/04/12 12:45:18;;;;;;;;;;;;;;;24.94;23.43;99590.66;5565186;32;34129;-70
2023/04/12 12:48:21;;;;;;;;;;;;;;;24.76;23.90;99594.00;5566614;32;34943;-70
2023/04/12 12:51:25;;;;;;;;;;;;;;;27.44;20.78;99596.63;5567573;32;34107;-71
2023/04/12 12:54:28;;;;;;;;;;;;;;;25.92;22.89;99592.34;5567793;32;34966;-70
2023/04/12 12:57:43;;;;;;;;;;;;;;;27.63;20.65;99591.97;5568320;32;34440;-70
2023/04/12 13:01:05;;;;;;;;;;;;;;;26.79;21.25;99596.47;5568424;32;34872;-71
2023/04/12 13:04:07;;;;;;;;;;;;;;;25.37;22.43;99599.03;5567758;32;34817;-71
2023/04/12 13:07:10;;;;;;;;;;;;;;;26.57;21.08;99595.44;5573176;31;35040;-69
2023/04/12 13:10:13;;;;;;;;;;;;;;;28.58;19.85;99584.97;5587987;31;34172;-70
2023/04/12 13:13:16;;;;;;;;;;;;;;;27.37;20.02;99585.28;5559623;32;34807;-70
2023/04/12 13:16:18;;;;;;;;;;;;;;;27.77;20.51;99583.00;5568482;32;34154;-69
2023/04/12 13:19:22;;;;;;;;;;;;;;;25.04;22.17;99574.31;5568328;32;34256;-70
2023/04/12 13:22:24;;;;;;;;;;;;;;;24.98;22.13;99572.72;5555139;32;34924;-71
2023/04/12 13:25:27;;;;;;;;;;;;;;;26.00;21.47;99574.59;5568056;32;34650;-69
2023/04/12 13:28:29;;;;;;;;;;;;;;;27.17;20.17;99570.06;5568166;32;34647;-70
2023/04/12 13:31:32;;;;;;;;;;;;;;;25.43;21.80;99568.84;5569417;31;34201;-70
2023/04/12 13:34:34;;;;;;;;;;;;;;;26.07;20.62;99569.63;5588270;31;34141;-70
2023/04/12 13:37:37;;;;;;;;;;;;;;;27.82;18.86;99563.84;5585386;31;34410;-69
2023/04/12 13:40:40;;;;;;;;;;;;;;;26.46;20.42;99561.28;5587536;31;34134;-69
2023/04/12 13:43:43;;;;;;;;;;;;;;;26.55;20.47;99557.63;5587430;31;34209;-70
2023/04/12 13:46:45;;;;;;;;;;;;;;;26.07;20.86;99554.13;5558114;31;34414;-71
2023/04/12 13:49:48;;;;;;;;;;;;;;;25.66;20.94;99556.44;5568119;32;34895;-71
2023/04/12 13:52:51;;;;;;;;;;;;;;;27.90;19.34;99550.31;5556140;32;33456;-71
2023/04/12 13:55:53;;;;;;;;;;;;;;;27.14;19.83;99546.19;5566106;32;33999;-72
2023/04/12 13:58:57;;;;;;;;;;;;;;;26.19;20.93;99551.00;5552673;32;34297;-69
2023/04/12 14:02:01;;;;;;;;;;;;;;;26.66;20.79;99547.41;5568259;31;34221;-69
2023/04/12 14:05:04;;;;;;;;;;;;;;;25.79;21.15;99547.62;5575749;31;34236;-70
2023/04/12 14:08:07;;;;;;;;;;;;;;;28.83;17.93;99537.22;5576860;31;34353;-71
2023/04/12 14:11:10;;;;;;;;;;;;;;;29.30;17.65;99535.81;5577591;31;34301;-68
2023/04/12 14:14:12;;;;;;;;;;;;;;;25.74;20.54;99531.38;5576810;31;34368;-70
2023/04/12 14:17:18;;;;;;;;;;;;;;;25.85;20.76;99532.09;5578229;31;34676;-70
2023/04/12 14:20:22;;;;;;;;;;;;;;;22.97;22.61;99528.78;5575794;31;34044;-69
2023/04/12 14:23:25;;;;;;;;;;;;;;;21.46;24.05;99523.53;5576836;31;34061;-69
2023/04/12 14:26:27;;;;;;;;;;;;;;;20.57;26.18;99523.28;5580516;31;34271;-70
2023/04/12 14:29:30;;;;;;;;;;;;;;;21.57;23.97;99514.44;5587092;31;33962;-70
2023/04/12 14:32:33;;;;;;;;;;;;;;;21.26;22.53;99529.59;5565967;31;34298;-69
2023/04/12 14:35:35;;;;;;;;;;;;;;;19.44;25.88;99517.50;5568934;31;34162;-69
2023/04/12 14:38:38;;;;;;;;;;;;;;;18.18;27.40;99523.25;5573869;31;34094;-69
2023/04/12 14:41:41;;;;;;;;;;;;;;;18.14;27.33;99520.25;5568674;31;33930;-69
2023/04/12 14:44:44;;;;;;;;;;;;;;;17.49;28.47;99518.75;5573216;31;34234;-69
2023/04/12 14:47:47;;;;;;;;;;;;;;;17.59;27.49;99516.34;5568171;31;34247;-69
2023/04/12 14:50:49;;;;;;;;;;;;;;;16.71;28.96;99513.63;5570482;31;34095;-69
2023/04/12 14:53:52;;;;;;;;;;;;;;;16.88;28.42;99518.13;5559113;31;34521;-69
2023/04/12 14:56:55;;;;;;;;;;;;;;;16.94;28.15;99513.72;5570830;31;34281;-69
2023/04/12 14:59:58;;;;;;;;;;;;;;;17.17;28.57;99521.78;5586594;31;34372;-68
2023/04/12 15:03:01;;;;;;;;;;;;;;;17.04;27.95;99508.59;5586530;31;33856;-70
2023/04/12 15:06:05;;;;;;;;;;;;;;;17.68;27.26;99513.06;5573882;31;34233;-67
2023/04/12 15:09:08;;;;;;;;;;;;;;;16.51;28.53;99512.03;5586062;31;34130;-69
2023/04/12 15:12:11;;;;;;;;;;;;;;;15.74;29.42;99514.63;5585036;31;34309;-69
2023/04/12 15:15:14;;;;;;;;;;;;;;;15.34;29.78;99509.66;5586960;31;34783;-69
2023/04/12 15:18:17;;;;;;;;;;;;;;;15.00;31.15;99510.97;5580074;31;34015;-68
2023/04/12 15:21:19;;;;;;;;;;;;;;;15.04;31.29;99506.00;5560362;31;34168;-70
2023/04/12 15:24:23;;;;;;;;;;;;;;;14.78;32.42;99502.50;5570266;31;37558;-69
2023/04/12 15:27:25;;;;;;;;;;;;;;;14.71;32.88;99504.41;5568723;31;33959;-68
2023/04/12 15:30:29;;;;;;;;;;;;;;;14.81;31.93;99503.94;5567822;31;34691;-69
2023/04/12 15:33:33;;;;;;;;;;;;;;;14.63;32.14;99506.50;5569520;31;34225;-69
2023/04/12 15:36:36;;;;;;;;;;;;;;;14.50;32.86;99509.25;5580792;31;34147;-68
2023/04/12 15:39:40;;;;;;;;;;;;;;;14.30;32.87;99506.66;5565825;31;35331;-69
2023/04/12 15:42:42;;;;;;;;;;;;;;;14.29;32.35;99513.84;5576868;31;34745;-68
2023/04/12 15:45:45;;;;;;;;;;;;;;;14.18;32.66;99513.69;5559509;31;34086;-68
2023/04/12 15:48:48;;;;;;;;;;;;;;;14.13;31.84;99521.53;5569774;31;33791;-67
2023/04/12 15:51:51;;;;;;;;;;;;;;;14.19;32.16;99510.81;5571880;31;34575;-68
2023/04/12 15:54:54;;;;;;;;;;;;;;;14.03;32.67;99505.97;5566163;32;34256;-68
2023/04/12 15:57:56;;;;;;;;;;;;;;;13.97;34.01;99509.47;5559823;31;34884;-67
2023/04/12 16:00:59;;;;;;;;;;;;;;;14.00;33.93;99511.69;5567021;31;34862;-67